• Join FlightAware (Why Join?)
  • Login
  • US Flag 
07:16AM EDT


 

Airport Tracker/Info


-or-


 

Live Flight TrackerFlight Track Log ✈ C-FZUJ ✈ 20-May-2012 ✈ CYYZ - MDPC / PUJ

Flight Track Log - Related Links

Times and Time Zones

All times are in EDT time to prevent confusion due to time zone crossing. See the C-FZUJ flight status page for this flight to view local times or setup timezone preferences in your user account.

Time Position Orientation Groundspeed Altitude Reporting Facility
EDT Latitude Longitude Course Direction KTS MPH feet Rate Location/Type
06:52AM 43.6333 -79.6833 193° South 180 207 2,500  Level Toronto Center
06:57AM 43.2725 -79.7933 183° South 425 489 13,700 2,220 Climbing Cleveland Center
06:58AM 43.1667 -79.8000 180° South 370 426 16,000 2,100 Climbing Toronto Center
06:59AM 43.0667 -79.8000 187° South 380 437 17,800 1,800 Climbing Toronto Center
07:00AM 42.9667 -79.8167 185° South 400 460 19,700 1,980 Climbing Toronto Center
07:01AM 42.8333 -79.8333 194° South 410 472 21,800 1,740 Climbing Toronto Center
07:02AM 42.7333 -79.8667 194° South 420 483 23,200 1,200 Climbing Toronto Center
07:03AM 42.6125 -79.9061 188° South 431 496 24,400 1,200 Climbing Cleveland Center
07:04AM 42.4897 -79.9300 186° South 441 507 25,800 1,260 Climbing Cleveland Center
07:05AM 42.3583 -79.9481 187° South 446 513 27,000 1,260 Climbing Cleveland Center
07:06AM 42.2336 -79.9692 188° South 446 513 28,400 1,200 Climbing Cleveland Center
07:07AM 42.1189 -79.9897 187° South 452 520 29,400 900 Climbing Cleveland Center
07:08AM 41.9897 -80.0106 188° South 466 536 30,300 1,200 Climbing Cleveland Center
07:09AM 41.8647 -80.0339 187° South 466 536 31,800 1,320 Climbing Cleveland Center
07:10AM 41.7294 -80.0572 188° South 461 531 33,000 900 Climbing Cleveland Center
07:11AM 41.6108 -80.0806 187° South 455 524 33,700 480 Climbing Cleveland Center
07:12AM 41.4858 -80.1008 187° South 450 518 34,000 120 Climbing Cleveland Center
07:13AM 41.3586 -80.1211 188° South 450 518 34,000  Level Cleveland Center
07:14AM 41.2317 -80.1442 187° South 455 524 34,000  Level Cleveland Center
07:15AM 41.1086 -80.1642 188° South 455 524 34,000  Level Cleveland Center
07:16AM 40.9817 -80.1869 187° South 463 533 34,000  Level Cleveland Center
07:17AM 40.8817 -80.2042 184° South 463 533 34,000  Level Cleveland Center
07:18AM 40.7378 -80.2158 182° South 469 540 34,000  Level Cleveland Center
07:19AM 40.6106 -80.2222 182° South 464 534 34,000  Level Cleveland Center
07:20AM 40.4814 -80.2283 182° South 459 528 34,000  Level Cleveland Center
07:21AM 40.3522 -80.2344 182° South 459 528 34,000  Level Cleveland Center
07:22AM 40.2231 -80.2406 180° South 459 528 34,000  Level Cleveland Center
07:23AM 40.0939 -80.2411 181° South 459 528 34,000  Level Cleveland Center
07:24AM 39.9708 -80.2444 181° South 454 522 34,000  Level Cleveland Center
07:26AM 39.6672 -80.2528 182° South 469 540 34,000  Level Washington Center
07:27AM 39.5400 -80.2581 181° South 464 534 34,000  Level Washington Center
07:28AM 39.4128 -80.2606 181° South 459 528 34,000  Level Washington Center
07:29AM 39.2856 -80.2631 187° South 459 528 34,000  Level Washington Center
07:30AM 39.1575 -80.2842 189° South 459 528 34,000  Level Washington Center
07:31AM 39.0314 -80.3108 189° South 459 528 34,000  Level Washington Center
07:32AM 38.8947 -80.3394 190° South 459 528 34,000  Level Washington Center
07:33AM 38.7664 -80.3683 194° South 475 547 34,000  Level Washington Center
07:34AM 38.6522 -80.4036 189° South 475 547 34,000  Level Washington Center
07:35AM 38.5242 -80.4297 189° South 475 547 34,000  Level Washington Center
07:36AM 38.3875 -80.4581 189° South 470 541 34,000  Level Washington Center
07:37AM 38.2611 -80.4842 188° South 470 541 34,000  Level Washington Center
07:38AM 38.1350 -80.5075 190° South 470 541 34,000  Level Washington Center
07:39AM 38.0131 -80.5336 190° South 470 541 34,000  Level Washington Center
07:40AM 37.8994 -80.5578 188° South 465 535 34,000  Level Washington Center
07:41AM 37.7733 -80.5811 185° South 465 535 34,000  Level Washington Center
07:42AM 37.6453 -80.5961 186° South 465 535 34,000  Level Washington Center
07:43AM 37.5092 -80.6133 184° South 465 535 34,000  Level Washington Center
07:44AM 37.3642 -80.6261 187° South 455 524 34,000  Level Atlanta Center
07:45AM 37.2375 -80.6447 185° South 455 524 34,000  Level Atlanta Center
07:46AM 37.1128 -80.6581 186° South 455 524 34,000  Level Atlanta Center
07:47AM 36.9839 -80.6739 185° South 460 529 34,000  Level Atlanta Center
07:48AM 36.8467 -80.6900 185° South 460 529 34,000  Level Atlanta Center
07:49AM 36.7219 -80.7031 187° South 460 529 34,000  Level Atlanta Center
07:50AM 36.5953 -80.7214 185° South 460 529 34,000  Level Atlanta Center
07:51AM 36.4683 -80.7344 186° South 460 529 34,000  Level Atlanta Center
07:52AM 36.3397 -80.7525 186° South 460 529 34,000  Level Atlanta Center
07:53AM 36.2169 -80.7678 187° South 460 529 34,000  Level Atlanta Center
07:54AM 36.0903 -80.7858 185° South 460 529 34,000  Level Atlanta Center
07:55AM 35.9781 -80.7981 186° South 460 529 34,000  Level Atlanta Center
07:56AM 35.8511 -80.8133 186° South 460 529 34,000  Level Atlanta Center
07:57AM 35.7242 -80.8286 185° South 460 529 34,000  Level Atlanta Center
07:58AM 35.5975 -80.8436 186° South 460 529 34,000  Level Atlanta Center
07:59AM 35.4561 -80.8619 186° South 460 529 34,000  Level Atlanta Center
08:00AM 35.3292 -80.8794 186° South 460 529 34,000  Level Atlanta Center
08:01AM 35.2003 -80.8972 186° South 465 535 34,000  Level Atlanta Center
08:02AM 35.0756 -80.9119 187° South 459 528 34,000  Level Atlanta Center
08:05AM 34.7978 -80.9508 184° South 463 533 34,000  Level Jacksonville Center
08:06AM 34.6583 -80.9617 188° South 463 533 34,000  Level Jacksonville Center
08:07AM 34.5333 -80.9822 185° South 463 533 34,000 180 Level Jacksonville Center
08:08AM 34.4042 -80.9950 181° South 463 533 34,400 600 Climbing Jacksonville Center
08:09AM 34.3061 -80.9972 182° South 454 522 35,300 720 Climbing Jacksonville Center
08:10AM 34.1603 -81.0028 182° South 447 514 35,900 300 Climbing Jacksonville Center
08:11AM 34.0372 -81.0081 183° South 442 509 35,900  Level Jacksonville Center
08:12AM 33.9100 -81.0158 182° South 442 509 36,000  Climbing Jacksonville Center
08:13AM 33.7828 -81.0208 182° South 447 514 36,000  Level Jacksonville Center
08:14AM 33.6597 -81.0261 181° South 447 514 36,000 -60 Level Jacksonville Center
08:15AM 33.5431 -81.0286 182° South 460 529 35,900 -60 Descending Jacksonville Center
08:16AM 33.4178 -81.0336 183° South 460 529 35,900  Level Jacksonville Center
08:17AM 33.2928 -81.0411 182° South 460 529 36,000  Climbing Jacksonville Center
08:18AM 33.1656 -81.0464 182° South 460 529 36,000 -60 Level Jacksonville Center
08:19AM 33.0342 -81.0517 182° South 460 529 35,900  Descending Jacksonville Center
08:20AM 32.9069 -81.0567 182° South 460 529 36,000  Climbing Jacksonville Center
08:21AM 32.7794 -81.0617 182° South 460 529 36,000  Level Jacksonville Center
08:22AM 32.6419 -81.0669 182° South 460 529 36,000  Level Jacksonville Center
08:23AM 32.5231 -81.0719 181° South 440 506 36,000 -60 Level Jacksonville Center
08:24AM 32.4081 -81.0742 183° South 443 510 35,900  Descending Jacksonville Center
08:25AM 32.2892 -81.0814 182° South 443 510 36,000  Climbing Jacksonville Center
08:26AM 32.1725 -81.0861 182° South 438 504 35,900 -60 Descending Jacksonville Center
08:27AM 32.0494 -81.0911 183° South 438 504 35,900  Level Jacksonville Center
08:28AM 31.9283 -81.0983 183° South 438 504 35,900  Level Jacksonville Center
08:29AM 31.7969 -81.1058 182° South 425 489 36,000 60 Climbing Jacksonville Center
08:30AM 31.6864 -81.1103 179° South 443 510 36,100  Climbing Jacksonville Center
08:31AM 31.5547 -81.1081 171° South 448 516 36,100 -60 Level Jacksonville Center
08:32AM 31.4417 -81.0881 169° South 447 514 36,000 -60 Descending Jacksonville Center
08:33AM 31.3139 -81.0592 171° South 458 527 36,000 -60 Level Jacksonville Center
08:34AM 31.1925 -81.0372 171° South 458 527 35,900 -60 Descending Jacksonville Center
08:35AM 31.0669 -81.0131 170° South 458 527 35,900  Level Jacksonville Center
08:36AM 30.9350 -80.9864 172° South 470 541 36,000  Climbing Jacksonville Center
08:37AM 30.8053 -80.9650 171° South 470 541 36,000 -60 Level Jacksonville Center
08:38AM 30.6775 -80.9408 171° South 475 547 35,900 -60 Descending Jacksonville Center
08:39AM 30.5456 -80.9172 171° South 475 547 35,900  Level Jacksonville Center
08:40AM 30.4136 -80.8933 171° South 475 547 35,900  Level Jacksonville Center
08:41AM 30.2817 -80.8697 170° South 481 554 36,000  Climbing Jacksonville Center
08:42AM 30.1519 -80.8436 149° Southeast 486 559 36,000  Level Jacksonville Center
08:43AM 30.0400 -80.7667 142° Southeast 464 534 36,000 -60 Level Jacksonville Center
08:45AM 29.8008 -80.5519 142° Southeast 489 563 35,900 -60 Descending Miami Center
08:46AM 29.6950 -80.4575 142° Southeast 489 563 35,900  Level Miami Center
08:47AM 29.5867 -80.3608 141° Southeast 489 563 36,000  Climbing Miami Center
08:48AM 29.4828 -80.2647 140° Southeast 489 563 36,000  Level Miami Center
08:49AM 29.3786 -80.1661 143° Southeast 489 563 36,000  Level Miami Center
08:50AM 29.2661 -80.0700 139° Southeast 494 568 36,000  Level Miami Center
08:51AM 29.1622 -79.9672 132° Southeast 499 574 36,000  Level Miami Center
08:52AM 29.0686 -79.8481 132° Southeast 499 574 36,000  Level Miami Center
08:53AM 28.9772 -79.7319 133° Southeast 493 567 36,000  Level Miami Center
08:54AM 28.8814 -79.6156 132° Southeast 493 567 36,000  Level Miami Center
08:55AM 28.7897 -79.4997 133° Southeast 493 567 36,000  Level Miami Center
08:56AM 28.6939 -79.3814 133° Southeast 498 573 36,000  Level Miami Center
08:57AM 28.5997 -79.2658 133° Southeast 498 573 36,000  Level Miami Center
08:58AM 28.5078 -79.1528 132° Southeast 498 573 36,000  Level Miami Center
08:59AM 28.4114 -79.0328 134° Southeast 498 573 36,000  Level Miami Center
09:00AM 28.3150 -78.9178 132° Southeast 500 575 36,000 300 Level Miami Center
09:01AM 28.2186 -78.7981 132° Southeast 500 575 36,700 480 Climbing Miami Center
09:02AM 28.1261 -78.6836 133° Southeast 500 575 37,000 120 Climbing Miami Center
09:03AM 28.0294 -78.5667 134° Southeast 500 575 37,000  Level Miami Center
09:04AM 27.9328 -78.4547 132° Southeast 500 575 37,000  Level Miami Center
09:05AM 27.8378 -78.3361 132° Southeast 500 575 37,000  Level Miami Center
09:06AM 27.7431 -78.2175 133° Southeast 505 581 37,000  Level Miami Center
09:07AM 27.6458 -78.1014 136° Southeast 505 581 37,000  Level Miami Center
09:08AM 27.5425 -77.9878 130° Southeast 505 581 37,000  Level Miami Center
09:09AM 27.4575 -77.8722 134° Southeast 499 574 37,000  Level Miami Center
09:10AM 27.3603 -77.7592 130° Southeast 499 574 37,000  Level Miami Center
09:11AM 27.2647 -77.6322 138° Southeast 509 586 37,000  Level Miami Center
09:12AM 27.1672 -77.5333 133° Southeast 494 568 37,000  Level Miami Center
09:13AM 27.0592 -77.4022 133° Southeast 503 579 37,000  Level Miami Center
09:14AM 26.9633 -77.2853 133° Southeast 498 573 37,000  Level Miami Center
09:15AM 26.8675 -77.1708 133° Southeast 504 580 37,000  Level Miami Center
09:16AM 26.7694 -77.0542 134° Southeast 504 580 37,000  Level Miami Center
09:17AM 26.6714 -76.9422 134° Southeast 504 580 37,000  Level Miami Center
09:18AM 26.5775 -76.8331 133° Southeast 498 573 37,000  Level Miami Center
09:19AM 26.4792 -76.7169 134° Southeast 504 580 37,000  Level Miami Center
09:20AM 26.3831 -76.6058 134° Southeast 503 579 37,000  Level Miami Center
09:21AM 26.2844 -76.4925 134° Southeast 503 579 37,000  Level Miami Center
09:22AM 26.1881 -76.3794 135° Southeast 503 579 37,000  Level Miami Center
09:23AM 26.0914 -76.2711 134° Southeast 492 566 37,000  Level Miami Center
09:24AM 25.9969 -76.1606 134° Southeast 498 573 37,000  Level Miami Center
09:25AM 25.9128 -76.0639 134° Southeast 498 573 37,000  Level Miami Center
09:26AM 25.8161 -75.9514 135° Southeast 488 562 37,000  Level Miami Center
09:27AM 25.7192 -75.8439 133° Southeast 494 568 37,000  Level Miami Center
09:28AM 25.6267 -75.7339 134° Southeast 486 559 37,000  Level Miami Center
09:29AM 25.5381 -75.6311 136° Southeast 478 550 37,000  Level Miami Center
09:30AM 25.4450 -75.5308 135° Southeast 473 544 37,000  Level Miami Center
09:31AM 25.3522 -75.4283 134° Southeast 467 537 37,000  Level Miami Center
09:32AM 25.2697 -75.3328 134° Southeast 456 525 37,000  Level Miami Center
09:33AM 25.1831 -75.2353 134° Southeast 456 525 37,000  Level Miami Center
09:34AM 25.0942 -75.1331 135° Southeast 456 525 37,000  Level Miami Center
09:35AM 25.0031 -75.0311 134° Southeast 456 525 37,000  Level Miami Center
09:36AM 24.9139 -74.9294 135° Southeast 456 525 37,000  Level Miami Center
09:37AM 24.8142 -74.8189 134° Southeast 456 525 37,000  Level Miami Center
09:38AM 24.7250 -74.7175 134° Southeast 456 525 37,000  Level Miami Center
09:39AM 24.6336 -74.6139 135° Southeast 461 531 37,000  Level Miami Center
09:40AM 24.5444 -74.5150 134° Southeast 461 531 37,000  Level Miami Center
09:41AM 24.4550 -74.4139 135° Southeast 461 531 37,000  Level Miami Center
09:42AM 24.3633 -74.3131 134° Southeast 461 531 37,000  Level Miami Center
09:43AM 24.2739 -74.2122 134° Southeast 461 531 37,000  Level Miami Center
09:44AM 24.1842 -74.1117 135° Southeast 461 531 37,000  Level Miami Center
09:45AM 24.0925 -74.0114 135° Southeast 461 531 37,000  Level Miami Center
09:46AM 24.0028 -73.9133 135° Southeast 461 531 37,000  Level Miami Center
09:47AM 23.9111 -73.8133 135° Southeast 461 531 37,000  Level Miami Center
09:48AM 23.8169 -73.7111 135° Southeast 461 531 37,000  Level Miami Center
09:49AM 23.7272 -73.6136 135° Southeast 456 525 37,000  Level Miami Center
09:50AM 23.6350 -73.5139 135° Southeast 462 532 37,000  Level Miami Center
09:51AM 23.5431 -73.4142 134° Southeast 462 532 37,100  Climbing Miami Center
09:52AM 23.4508 -73.3103 135° Southeast 462 532 37,100 -60 Level Miami Center
09:53AM 23.3586 -73.2111 135° Southeast 462 532 37,000 -60 Descending Miami Center
09:54AM 23.2664 -73.1119 134° Southeast 462 532 37,000  Level Miami Center
09:55AM 23.1803 -73.0153 135° Southeast 456 525 37,000  Level Miami Center
09:56AM 23.0881 -72.9164 135° Southeast 456 525 37,000  Level Miami Center
09:57AM 23.0064 -72.8286 137° Southeast 456 525 37,000  Level Miami Center
09:58AM 22.9117 -72.7325 137° Southeast 456 525 37,000  Level Miami Center
09:59AM 22.8194 -72.6386 135° Southeast 456 525 37,000  Level Miami Center
10:00AM 22.7311 -72.5422 135° Southeast 456 525 37,000  Level Miami Center
10:01AM 22.6406 -72.4442 138° Southeast 456 525 37,000  Level Miami Center
10:02AM 22.5458 -72.3508 136° Southeast 461 531 37,000  Level Miami Center
10:03AM 22.4533 -72.2550 138° Southeast 461 531 37,000  Level Miami Center
10:04AM 22.3586 -72.1619 132° Southeast 461 531 37,000  Level Miami Center
10:05AM 22.2719 -72.0597 124° Southeast 461 531 37,000  Level Miami Center
10:06AM 22.1994 -71.9458 124° Southeast 461 531 37,000  Level Miami Center
10:07AM 22.1289 -71.8342 121° Southeast 461 531 37,000  Level Miami Center
10:08AM 22.0625 -71.7158 121° Southeast 455 524 37,000  Level Miami Center
10:09AM 22.0000 -71.6042 135° Southeast 449 517 37,000  Level Miami Center
10:10AM 21.9133 -71.5092 139° Southeast 443 510 37,000  Level Miami Center
10:11AM 21.8183 -71.4214 138° Southeast 443 510 37,000  Level Miami Center
10:12AM 21.7256 -71.3314 139° Southeast 443 510 37,000  Level Miami Center
10:13AM 21.6306 -71.2417 139° Southeast 448 516 37,000  Level Miami Center
10:14AM 21.5244 -71.1414 139° Southeast 448 516 37,100  Climbing Miami Center
10:15AM 21.4272 -71.0497 140° Southeast 448 516 37,100 -60 Level Miami Center
10:16AM 21.3150 -70.9478 139° Southeast 461 531 37,000 -60 Descending Miami Center
10:17AM 21.2133 -70.8519 139° Southeast 474 545 37,000  Level Miami Center
10:18AM 21.1114 -70.7567 139° Southeast 480 552 37,000  Level Miami Center
10:19AM 21.0119 -70.6633 139° Southeast 480 552 37,000  Level Miami Center
10:20AM 20.9100 -70.5683 138° Southeast 480 552 37,000  Level Miami Center
10:21AM 20.8081 -70.4711 139° Southeast 480 552 37,000  Level Miami Center
10:22AM 20.7039 -70.3739 140° Southeast 480 552 37,000  Level Miami Center
10:23AM 20.6000 -70.2794 139° Southeast 485 558 37,000  Level Miami Center
10:24AM 20.4981 -70.1847 139° Southeast 485 558 37,000  Level Miami Center
10:25AM 20.3939 -70.0881 138° Southeast 491 565 37,000 -240 Level Miami Center
10:26AM 20.2939 -69.9936 140° Southeast 491 565 36,600 -1,740 Descending Miami Center
10:27AM 20.1897 -69.8994 139° Southeast 491 565 33,600 -3,300 Descending Miami Center
10:28AM 20.0897 -69.8075 139° Southeast 491 565 30,100 -3,000 Descending Miami Center
10:29AM 19.9919 -69.7156 139° Southeast 481 554 27,600 -1,560 Descending Miami Center
10:30AM 19.8919 -69.6217 144° Southeast 476 548 27,000 -300 Descending Miami Center
10:31AM 19.7881 -69.5411 143° Southeast 476 548 27,000 -300 Level Miami Center
10:32AM 19.6842 -69.4567 134° Southeast 471 542 26,400 -600 Descending Miami Center
10:39AM 19.0750 -68.7847 142° Southeast  Level FlightAware Approximate
10:40AM 18.9768 -68.7048 142° Southeast  Level FlightAware Approximate
10:41AM 18.8792 -68.6241 145° Southeast  Level FlightAware Approximate
10:42AM 18.7773 -68.5496 142° Southeast  Level FlightAware Approximate
10:43AM 18.6809 -68.4714 140° Southeast  Level FlightAware Approximate
10:44AM 18.5874 -68.3874 112° Southeast  Level FlightAware Approximate
10:45AM 18.5667 -68.3333 271° West  Level FlightAware Approximate
10:46AM 18.5697 -68.4640 91° East  Level Estimated
10:47AM 18.5667 -68.3334 271° West  Level FlightAware Approximate
10:48AM 18.5697 -68.4641 91° East  Level Estimated
10:49AM 18.5667 -68.3334 271° West  Level FlightAware Approximate
10:50AM 18.5697 -68.4641 91° East  Level Estimated
10:51AM 18.5667 -68.3333 271° West  Level FlightAware Approximate
10:52AM 18.5697 -68.4640 91° East  Level Estimated
10:53AM 18.5667 -68.3333 91° East  Level FlightAware Approximate